TimePST,TemperatureF,Dew PointF,Humidity,Sea Level PressureIn,VisibilityMPH,Wind Direction,Wind SpeedMPH,Gust SpeedMPH,PrecipitationIn,Events,Conditions,WindDirDegrees,DateUTC
12:27 AM,28.4,28.4,100,29.50,0.8,SE,6.9,-,0.02,Snow,Light Snow,140,2012-12-02 08:27:00
12:53 AM,28.0,28.0,100,29.54,0.5,SE,4.6,-,0.05,Fog-Snow,Snow,130,2012-12-02 08:53:00
1:53 AM,28.0,27.0,96,29.49,0.8,ESE,9.2,16.1,0.07,Snow,Light Snow,110,2012-12-02 09:53:00
2:20 AM,26.6,26.6,100,29.43,0.8,SE,8.1,-,0.03,Snow,Light Snow,130,2012-12-02 10:20:00
2:32 AM,26.6,26.6,100,29.41,0.8,ESE,6.9,-,0.04,Snow,Light Snow,120,2012-12-02 10:32:00
2:53 AM,28.0,27.0,96,29.44,0.5,SE,8.1,-,0.07,Fog-Snow,Snow,130,2012-12-02 10:53:00
3:14 AM,28.4,28.4,100,29.35,0.5,SE,11.5,18.4,0.04,Fog-Snow,Snow,130,2012-12-02 11:14:00
3:25 AM,28.4,28.4,100,29.34,0.5,SE,10.4,18.4,0.06,Fog-Snow,Snow,140,2012-12-02 11:25:00
3:53 AM,28.0,28.0,100,29.36,0.5,SE,9.2,-,0.12,Fog-Snow,Snow,140,2012-12-02 11:53:00
4:00 AM,28.4,28.4,100,29.30,0.5,SSE,6.9,-,0.01,Fog-Snow,Snow,150,2012-12-02 12:00:00
4:34 AM,26.6,26.6,100,29.27,0.2,SE,6.9,16.1,0.10,Fog-Snow,Heavy Snow,140,2012-12-02 12:34:00
4:53 AM,28.0,28.0,100,29.32,0.5,SSE,8.1,16.1,0.14,Fog-Snow,Snow,150,2012-12-02 12:53:00
5:53 AM,28.0,28.0,100,29.28,0.5,Variable,4.6,-,0.11,Fog-Snow,Snow,0,2012-12-02 13:53:00
6:08 AM,28.4,28.4,100,29.21,0.2,SSE,6.9,-,0.03,Fog-Snow,Snow,160,2012-12-02 14:08:00
6:53 AM,30.0,30.0,100,29.26,0.5,South,8.1,17.3,0.11,Fog-Snow,Snow,180,2012-12-02 14:53:00
7:00 AM,30.2,30.2,100,29.21,0.2,South,9.2,17.3,0.02,Fog-Snow,Snow,170,2012-12-02 15:00:00
7:08 AM,30.2,30.2,100,29.21,0.5,South,9.2,-,0.03,Fog-Snow,Snow,170,2012-12-02 15:08:00
7:53 AM,30.0,30.0,100,29.26,0.2,South,10.4,23.0,0.11,Fog-Snow,Heavy Snow,180,2012-12-02 15:53:00
8:53 AM,30.9,30.9,100,29.12,0.2,Variable,6.9,18.4,0.10,Fog-Snow,Snow,0,2012-12-02 16:53:00
9:53 AM,30.9,30.9,100,29.15,0.2,SW,12.7,24.2,0.09,Fog-Snow,Snow,230,2012-12-02 17:53:00
10:53 AM,30.0,30.0,100,29.30,0.2,SW,8.1,18.4,0.07,Fog-Snow,Snow,230,2012-12-02 18:53:00
11:53 AM,30.0,28.9,96,29.34,0.2,SSW,8.1,24.2,0.11,Fog-Snow,Snow,210,2012-12-02 19:53:00
12:53 PM,28.9,28.9,100,29.39,0.2,WSW,8.1,18.4,0.02,Fog-Snow,Light Snow,250,2012-12-02 20:53:00
1:23 PM,28.4,28.4,100,29.36,1.0,WSW,9.2,21.9,0.03,Snow,Light Snow,240,2012-12-02 21:23:00
1:35 PM,28.4,28.4,100,29.37,0.2,Variable,6.9,16.1,0.03,Fog-Snow,Light Snow,0,2012-12-02 21:35:00
1:53 PM,28.0,28.0,100,29.45,0.2,WSW,8.1,25.3,0.04,Fog-Snow,Snow,250,2012-12-02 21:53:00
2:20 PM,26.6,26.6,100,29.41,0.8,West,12.7,26.5,0.02,Snow,Light Snow,260,2012-12-02 22:20:00
2:24 PM,26.6,26.6,100,29.42,1.0,WSW,8.1,26.5,0.02,Snow,Light Snow,250,2012-12-02 22:24:00
2:32 PM,26.6,26.6,100,29.43,0.8,West,12.7,25.3,0.02,Snow,Light Snow,260,2012-12-02 22:32:00
2:35 PM,26.6,24.8,93,29.43,1.0,WSW,12.7,26.5,0.02,Snow,Light Snow,250,2012-12-02 22:35:00
2:39 PM,26.6,24.8,93,29.44,2.5,West,8.1,28.8,0.02,Snow,Light Snow,260,2012-12-02 22:39:00
2:46 PM,26.6,24.8,93,29.44,3.0,West,12.7,32.2,0.02,Snow,Light Snow,260,2012-12-02 22:46:00
2:50 PM,26.6,24.8,93,29.45,1.8,West,12.7,32.2,0.03,Snow,Light Snow,260,2012-12-02 22:50:00
2:53 PM,26.1,24.1,92,29.53,1.0,West,10.4,32.2,0.03,Snow,Light Snow,260,2012-12-02 22:53:00
3:05 PM,26.6,24.8,93,29.46,2.0,West,13.8,31.1,0.00,Snow,Light Snow,280,2012-12-02 23:05:00
3:13 PM,26.6,24.8,93,29.47,1.5,WNW,11.5,28.8,0.00,Snow,Light Snow,290,2012-12-02 23:13:00
3:23 PM,26.6,24.8,93,29.48,2.0,West,11.5,31.1,0.00,Snow,Light Snow,260,2012-12-02 23:23:00
3:32 PM,26.6,24.8,93,29.49,1.2,West,10.4,28.8,0.01,Snow,Light Snow,270,2012-12-02 23:32:00
3:39 PM,26.6,24.8,93,29.50,0.8,West,11.5,28.8,0.02,Snow,Light Snow,270,2012-12-02 23:39:00
3:42 PM,26.6,24.8,93,29.51,1.0,West,9.2,27.6,0.02,Snow,Light Snow,260,2012-12-02 23:42:00
3:51 PM,26.6,24.8,93,29.51,2.0,WSW,10.4,23.0,0.03,Snow,Light Snow,250,2012-12-02 23:51:00
3:53 PM,26.1,24.1,92,29.60,3.0,West,8.1,23.0,0.03,Snow,Light Snow,270,2012-12-02 23:53:00
4:09 PM,26.6,24.8,93,29.53,2.0,Variable,5.8,21.9,0.00,Snow,Light Snow,0,2012-12-03 00:09:00
4:12 PM,26.6,24.8,93,29.53,1.2,Variable,6.9,21.9,0.00,Snow,Light Snow,0,2012-12-03 00:12:00
4:19 PM,26.6,26.6,100,29.53,0.8,Variable,4.6,-,0.01,Snow,Light Snow,0,2012-12-03 00:19:00
4:53 PM,26.1,25.0,96,29.64,0.5,WSW,11.5,18.4,0.05,Fog-Snow,Light Snow,240,2012-12-03 00:53:00
5:53 PM,26.1,25.0,96,29.68,0.8,Variable,6.9,-,0.07,Snow,Light Snow,0,2012-12-03 01:53:00
6:11 PM,26.6,24.8,93,29.60,1.0,Variable,6.9,-,0.01,Snow,Light Snow,0,2012-12-03 02:11:00
6:23 PM,26.6,24.8,93,29.61,1.5,SW,10.4,20.7,0.02,Snow,Light Snow,230,2012-12-03 02:23:00
6:29 PM,26.6,24.8,93,29.61,1.2,SW,10.4,24.2,0.02,Snow,Light Snow,230,2012-12-03 02:29:00
6:40 PM,24.8,24.8,100,29.62,1.5,WSW,8.1,21.9,0.03,Snow,Light Snow,240,2012-12-03 02:40:00
6:47 PM,24.8,24.8,100,29.62,1.2,WSW,9.2,21.9,0.03,Snow,Light Snow,240,2012-12-03 02:47:00
6:53 PM,25.0,25.0,100,29.70,1.5,WSW,6.9,21.9,0.03,Snow,Light Snow,250,2012-12-03 02:53:00
7:20 PM,24.8,24.8,100,29.64,2.5,SW,11.5,26.5,0.02,Snow,Light Snow,230,2012-12-03 03:20:00
7:28 PM,24.8,24.8,100,29.64,5.0,Variable,6.9,24.2,0.02,Snow,Light Snow,0,2012-12-03 03:28:00
7:50 PM,26.6,24.8,93,29.65,2.5,Variable,3.5,-,0.02,Snow,Light Snow,0,2012-12-03 03:50:00
7:53 PM,26.1,25.0,96,29.73,2.0,Variable,4.6,-,0.02,Snow,Light Snow,0,2012-12-03 03:53:00
7:58 PM,26.6,24.8,93,29.66,1.2,Variable,5.8,-,0.00,Snow,Light Snow,0,2012-12-03 03:58:00
8:11 PM,26.6,24.8,93,29.66,0.8,Variable,5.8,-,0.00,Snow,Light Snow,0,2012-12-03 04:11:00
8:14 PM,26.6,24.8,93,29.67,1.0,Variable,5.8,-,0.00,Snow,Light Snow,0,2012-12-03 04:14:00
8:30 PM,26.6,24.8,93,29.68,0.8,Variable,6.9,-,0.01,Snow,Light Snow,0,2012-12-03 04:30:00
8:37 PM,26.6,24.8,93,29.68,0.8,Variable,4.6,19.6,0.01,Snow,Light Snow,0,2012-12-03 04:37:00
8:46 PM,26.6,24.8,93,29.69,0.5,Variable,6.9,-,0.02,Fog-Snow,Snow,0,2012-12-03 04:46:00
8:53 PM,26.1,25.0,96,29.75,0.5,Variable,5.8,-,0.03,Fog-Snow,Snow,0,2012-12-03 04:53:00
9:53 PM,26.1,25.0,96,29.78,0.5,SW,11.5,28.8,0.04,Fog-Snow,Snow,230,2012-12-03 05:53:00
10:53 PM,26.1,25.0,96,29.82,0.5,SW,5.8,20.7,0.04,Fog-Snow,Light Snow,220,2012-12-03 06:53:00
11:53 PM,26.1,25.0,96,29.83,0.5,SSW,10.4,23.0,0.03,Fog-Snow,Snow,210,2012-12-03 07:53:00